sensor_id;sensor_type;location;lat;lon;timestamp;pressure;altitude;pressure_sealevel;temperature;humidity
42411;BME280;28056;51.112;0.984;2023-04-26T00:04:50;101075.45;;;8.19;43.82
42411;BME280;28056;51.112;0.984;2023-04-26T00:07:19;101073.46;;;8.18;43.95
42411;BME280;28056;51.112;0.984;2023-04-26T00:09:47;101070.70;;;8.10;43.69
42411;BME280;28056;51.112;0.984;2023-04-26T00:12:14;101067.25;;;8.08;43.54
42411;BME280;28056;51.112;0.984;2023-04-26T00:14:41;101066.97;;;8.16;43.93
42411;BME280;28056;51.112;0.984;2023-04-26T00:17:08;101070.94;;;7.81;44.72
42411;BME280;28056;51.112;0.984;2023-04-26T00:19:35;101075.10;;;8.14;44.90
42411;BME280;28056;51.112;0.984;2023-04-26T00:22:02;101076.49;;;7.96;44.44
42411;BME280;28056;51.112;0.984;2023-04-26T00:24:30;101073.24;;;8.18;44.57
42411;BME280;28056;51.112;0.984;2023-04-26T00:26:57;101075.20;;;7.89;44.41
42411;BME280;28056;51.112;0.984;2023-04-26T00:29:24;101077.99;;;7.79;44.84
42411;BME280;28056;51.112;0.984;2023-04-26T00:31:51;101078.64;;;7.69;44.94
42411;BME280;28056;51.112;0.984;2023-04-26T00:34:19;101078.14;;;7.68;44.80
42411;BME280;28056;51.112;0.984;2023-04-26T00:36:46;101074.23;;;7.83;45.12
42411;BME280;28056;51.112;0.984;2023-04-26T00:39:13;101070.30;;;7.84;45.18
42411;BME280;28056;51.112;0.984;2023-04-26T00:41:40;101064.30;;;7.70;44.84
42411;BME280;28056;51.112;0.984;2023-04-26T00:44:07;101059.11;;;7.85;45.34
42411;BME280;28056;51.112;0.984;2023-04-26T00:46:34;101053.92;;;7.74;45.60
42411;BME280;28056;51.112;0.984;2023-04-26T00:49:02;101041.69;;;7.71;45.66
42411;BME280;28056;51.112;0.984;2023-04-26T00:51:29;101034.08;;;7.66;45.89
42411;BME280;28056;51.112;0.984;2023-04-26T00:53:57;101031.76;;;7.61;46.17
42411;BME280;28056;51.112;0.984;2023-04-26T00:56:25;101032.23;;;7.54;46.51
42411;BME280;28056;51.112;0.984;2023-04-26T00:58:53;101031.70;;;7.50;46.60
42411;BME280;28056;51.112;0.984;2023-04-26T01:01:20;101028.19;;;7.57;45.87
42411;BME280;28056;51.112;0.984;2023-04-26T01:03:47;101031.19;;;7.55;46.08
42411;BME280;28056;51.112;0.984;2023-04-26T01:06:14;101027.95;;;7.53;46.19
42411;BME280;28056;51.112;0.984;2023-04-26T01:08:42;101027.84;;;7.50;46.40
42411;BME280;28056;51.112;0.984;2023-04-26T01:11:09;101024.82;;;7.55;45.72
42411;BME280;28056;51.112;0.984;2023-04-26T01:13:37;101023.48;;;7.44;46.28
42411;BME280;28056;51.112;0.984;2023-04-26T01:16:07;101023.04;;;7.48;46.16
42411;BME280;28056;51.112;0.984;2023-04-26T01:18:35;101022.87;;;7.49;45.90
42411;BME280;28056;51.112;0.984;2023-04-26T01:21:02;101021.11;;;7.37;46.50
42411;BME280;28056;51.112;0.984;2023-04-26T01:23:29;101020.81;;;7.36;46.68
42411;BME280;28056;51.112;0.984;2023-04-26T01:25:57;101020.53;;;7.41;46.09
42411;BME280;28056;51.112;0.984;2023-04-26T01:28:24;101022.14;;;7.37;45.99
42411;BME280;28056;51.112;0.984;2023-04-26T01:30:51;101021.76;;;7.43;45.57
42411;BME280;28056;51.112;0.984;2023-04-26T01:33:18;101015.95;;;7.34;46.12
42411;BME280;28056;51.112;0.984;2023-04-26T01:35:45;101011.11;;;7.55;46.46
42411;BME280;28056;51.112;0.984;2023-04-26T01:38:12;101010.34;;;7.36;46.03
42411;BME280;28056;51.112;0.984;2023-04-26T01:40:40;101011.20;;;7.32;46.35
42411;BME280;28056;51.112;0.984;2023-04-26T01:43:07;101012.48;;;7.26;46.25
42411;BME280;28056;51.112;0.984;2023-04-26T01:45:34;101012.90;;;7.25;46.16
42411;BME280;28056;51.112;0.984;2023-04-26T01:48:01;101014.13;;;7.27;46.27
42411;BME280;28056;51.112;0.984;2023-04-26T01:50:28;101010.29;;;7.25;46.25
42411;BME280;28056;51.112;0.984;2023-04-26T01:52:55;101008.74;;;7.26;46.44
42411;BME280;28056;51.112;0.984;2023-04-26T01:55:22;101006.38;;;7.34;46.88
42411;BME280;28056;51.112;0.984;2023-04-26T01:57:50;101008.15;;;7.48;47.07
42411;BME280;28056;51.112;0.984;2023-04-26T02:00:18;101010.29;;;7.14;46.98
42411;BME280;28056;51.112;0.984;2023-04-26T02:02:45;101012.52;;;7.18;46.30
42411;BME280;28056;51.112;0.984;2023-04-26T02:05:12;101014.03;;;7.20;46.53
42411;BME280;28056;51.112;0.984;2023-04-26T02:07:40;101011.90;;;7.21;46.80
42411;BME280;28056;51.112;0.984;2023-04-26T02:10:08;101016.32;;;7.20;46.71
42411;BME280;28056;51.112;0.984;2023-04-26T02:12:35;101019.96;;;7.26;46.67
42411;BME280;28056;51.112;0.984;2023-04-26T02:15:04;101017.53;;;7.29;46.55
42411;BME280;28056;51.112;0.984;2023-04-26T02:17:32;101013.95;;;7.26;46.73
42411;BME280;28056;51.112;0.984;2023-04-26T02:19:59;101016.59;;;7.32;46.45
42411;BME280;28056;51.112;0.984;2023-04-26T02:22:26;101016.93;;;7.30;46.31
42411;BME280;28056;51.112;0.984;2023-04-26T02:24:53;101016.99;;;7.19;46.88
42411;BME280;28056;51.112;0.984;2023-04-26T02:27:20;101016.01;;;7.33;46.39
42411;BME280;28056;51.112;0.984;2023-04-26T02:29:47;101014.27;;;7.39;46.28
42411;BME280;28056;51.112;0.984;2023-04-26T02:32:14;101013.47;;;7.49;46.35
42411;BME280;28056;51.112;0.984;2023-04-26T02:34:43;101012.84;;;7.29;46.61
42411;BME280;28056;51.112;0.984;2023-04-26T02:37:10;101010.34;;;7.33;46.93
42411;BME280;28056;51.112;0.984;2023-04-26T02:39:38;101004.60;;;7.23;47.67
42411;BME280;28056;51.112;0.984;2023-04-26T02:42:08;101000.18;;;7.07;47.83
42411;BME280;28056;51.112;0.984;2023-04-26T02:44:35;101000.49;;;7.29;48.10
42411;BME280;28056;51.112;0.984;2023-04-26T02:47:03;100994.61;;;7.22;48.60
42411;BME280;28056;51.112;0.984;2023-04-26T02:49:30;100990.01;;;7.02;49.62
42411;BME280;28056;51.112;0.984;2023-04-26T02:52:02;100990.53;;;7.39;48.46
42411;BME280;28056;51.112;0.984;2023-04-26T02:54:30;101000.73;;;7.50;48.20
42411;BME280;28056;51.112;0.984;2023-04-26T02:56:57;101002.47;;;7.40;48.87
42411;BME280;28056;51.112;0.984;2023-04-26T02:59:25;101003.00;;;7.35;48.86
42411;BME280;28056;51.112;0.984;2023-04-26T03:01:53;101001.93;;;7.37;49.07
42411;BME280;28056;51.112;0.984;2023-04-26T03:04:20;101001.27;;;7.48;48.03
42411;BME280;28056;51.112;0.984;2023-04-26T03:06:47;100999.58;;;7.59;47.58
42411;BME280;28056;51.112;0.984;2023-04-26T03:09:14;100999.49;;;7.44;48.54
42411;BME280;28056;51.112;0.984;2023-04-26T03:11:41;100998.84;;;7.45;48.37
42411;BME280;28056;51.112;0.984;2023-04-26T03:14:09;100998.70;;;7.49;48.57
42411;BME280;28056;51.112;0.984;2023-04-26T03:16:41;100999.87;;;7.38;48.77
42411;BME280;28056;51.112;0.984;2023-04-26T03:19:08;101001.69;;;7.58;48.41
42411;BME280;28056;51.112;0.984;2023-04-26T03:21:35;101000.98;;;7.62;48.28
42411;BME280;28056;51.112;0.984;2023-04-26T03:24:02;101003.27;;;7.69;48.28
42411;BME280;28056;51.112;0.984;2023-04-26T03:26:29;101002.28;;;7.69;48.57
42411;BME280;28056;51.112;0.984;2023-04-26T03:28:57;101000.16;;;7.70;48.51
42411;BME280;28056;51.112;0.984;2023-04-26T03:31:24;100997.52;;;7.81;48.05
42411;BME280;28056;51.112;0.984;2023-04-26T03:33:51;100996.68;;;7.74;48.84
42411;BME280;28056;51.112;0.984;2023-04-26T03:36:18;100994.03;;;7.58;49.42
42411;BME280;28056;51.112;0.984;2023-04-26T03:38:45;100991.99;;;7.47;49.64
42411;BME280;28056;51.112;0.984;2023-04-26T03:41:13;100989.73;;;7.72;49.14
42411;BME280;28056;51.112;0.984;2023-04-26T03:43:40;100984.13;;;7.81;48.91
42411;BME280;28056;51.112;0.984;2023-04-26T03:46:07;100982.05;;;7.71;49.49
42411;BME280;28056;51.112;0.984;2023-04-26T03:48:34;100981.67;;;7.70;49.61
42411;BME280;28056;51.112;0.984;2023-04-26T03:51:01;100974.50;;;7.78;49.36
42411;BME280;28056;51.112;0.984;2023-04-26T03:53:29;100971.38;;;7.76;49.83
42411;BME280;28056;51.112;0.984;2023-04-26T03:55:56;100977.68;;;7.85;49.37
42411;BME280;28056;51.112;0.984;2023-04-26T03:58:25;100978.35;;;7.99;48.67
42411;BME280;28056;51.112;0.984;2023-04-26T04:00:55;100974.89;;;7.62;49.46
42411;BME280;28056;51.112;0.984;2023-04-26T04:03:23;100973.09;;;7.94;49.05
42411;BME280;28056;51.112;0.984;2023-04-26T04:05:51;100975.76;;;7.88;49.39
42411;BME280;28056;51.112;0.984;2023-04-26T04:08:17;100976.97;;;7.67;48.62
42411;BME280;28056;51.112;0.984;2023-04-26T04:10:45;100978.34;;;7.90;49.26
42411;BME280;28056;51.112;0.984;2023-04-26T04:13:12;100978.06;;;7.97;48.86
42411;BME280;28056;51.112;0.984;2023-04-26T04:15:39;100971.57;;;7.72;49.06
42411;BME280;28056;51.112;0.984;2023-04-26T04:18:06;100969.56;;;7.81;49.02
42411;BME280;28056;51.112;0.984;2023-04-26T04:20:34;100968.07;;;8.11;48.73
42411;BME280;28056;51.112;0.984;2023-04-26T04:23:01;100965.19;;;7.55;49.30
42411;BME280;28056;51.112;0.984;2023-04-26T04:25:28;100961.61;;;7.83;49.02
42411;BME280;28056;51.112;0.984;2023-04-26T04:27:56;100961.08;;;7.92;48.66
42411;BME280;28056;51.112;0.984;2023-04-26T04:30:23;100960.49;;;7.70;49.17
42411;BME280;28056;51.112;0.984;2023-04-26T04:32:50;100959.45;;;7.50;49.04
42411;BME280;28056;51.112;0.984;2023-04-26T04:35:18;100963.57;;;8.20;48.43
42411;BME280;28056;51.112;0.984;2023-04-26T04:37:45;100966.69;;;7.97;48.27
42411;BME280;28056;51.112;0.984;2023-04-26T04:40:39;100967.45;;;7.99;48.59
42411;BME280;28056;51.112;0.984;2023-04-26T04:43:07;100968.74;;;8.16;47.94
42411;BME280;28056;51.112;0.984;2023-04-26T04:45:34;100968.65;;;7.81;48.45
42411;BME280;28056;51.112;0.984;2023-04-26T04:48:01;100971.08;;;7.81;48.96
42411;BME280;28056;51.112;0.984;2023-04-26T04:50:28;100966.15;;;7.64;49.03
42411;BME280;28056;51.112;0.984;2023-04-26T04:52:55;100960.32;;;7.77;48.74
42411;BME280;28056;51.112;0.984;2023-04-26T04:55:23;100959.70;;;7.91;48.48
42411;BME280;28056;51.112;0.984;2023-04-26T04:57:51;100963.56;;;7.78;48.93
42411;BME280;28056;51.112;0.984;2023-04-26T05:00:20;100966.44;;;7.93;48.54
42411;BME280;28056;51.112;0.984;2023-04-26T05:02:47;100965.92;;;7.90;48.75
42411;BME280;28056;51.112;0.984;2023-04-26T05:05:14;100970.84;;;8.31;48.17
42411;BME280;28056;51.112;0.984;2023-04-26T05:07:42;100969.14;;;8.10;48.32
42411;BME280;28056;51.112;0.984;2023-04-26T05:10:11;100969.10;;;8.00;48.65
42411;BME280;28056;51.112;0.984;2023-04-26T05:12:38;100965.44;;;8.04;48.61
42411;BME280;28056;51.112;0.984;2023-04-26T05:15:06;100961.19;;;8.23;48.59
42411;BME280;28056;51.112;0.984;2023-04-26T05:17:34;100959.84;;;8.25;48.01
42411;BME280;28056;51.112;0.984;2023-04-26T05:20:01;100960.94;;;8.19;48.22
42411;BME280;28056;51.112;0.984;2023-04-26T05:22:29;100962.65;;;8.12;47.97
42411;BME280;28056;51.112;0.984;2023-04-26T05:24:56;100959.09;;;8.17;47.96
42411;BME280;28056;51.112;0.984;2023-04-26T05:27:24;100956.94;;;8.37;47.69
42411;BME280;28056;51.112;0.984;2023-04-26T05:29:51;100960.97;;;7.85;49.21
42411;BME280;28056;51.112;0.984;2023-04-26T05:32:19;100963.65;;;7.82;48.62
42411;BME280;28056;51.112;0.984;2023-04-26T05:34:47;100961.69;;;8.35;47.74
42411;BME280;28056;51.112;0.984;2023-04-26T05:37:14;100961.24;;;8.54;47.96
42411;BME280;28056;51.112;0.984;2023-04-26T05:39:41;100961.10;;;8.35;47.80
42411;BME280;28056;51.112;0.984;2023-04-26T05:42:09;100963.35;;;8.41;47.66
42411;BME280;28056;51.112;0.984;2023-04-26T05:44:36;100962.95;;;8.56;47.64
42411;BME280;28056;51.112;0.984;2023-04-26T05:47:04;100967.06;;;8.24;47.78
42411;BME280;28056;51.112;0.984;2023-04-26T05:49:31;100962.07;;;8.81;47.06
42411;BME280;28056;51.112;0.984;2023-04-26T05:51:59;100964.33;;;8.91;46.98
42411;BME280;28056;51.112;0.984;2023-04-26T05:54:26;100966.01;;;9.00;46.92
42411;BME280;28056;51.112;0.984;2023-04-26T05:56:53;100973.78;;;9.13;46.83
42411;BME280;28056;51.112;0.984;2023-04-26T05:59:20;100975.84;;;9.15;46.54
42411;BME280;28056;51.112;0.984;2023-04-26T06:01:47;100972.65;;;9.05;46.68
42411;BME280;28056;51.112;0.984;2023-04-26T06:04:14;100972.59;;;8.76;47.12
42411;BME280;28056;51.112;0.984;2023-04-26T06:06:41;100971.45;;;8.67;47.31
42411;BME280;28056;51.112;0.984;2023-04-26T06:09:09;100977.40;;;8.85;47.20
42411;BME280;28056;51.112;0.984;2023-04-26T06:11:36;100981.48;;;9.51;47.06
42411;BME280;28056;51.112;0.984;2023-04-26T06:14:03;100985.10;;;9.19;46.69
42411;BME280;28056;51.112;0.984;2023-04-26T06:16:30;100987.77;;;9.23;46.81
42411;BME280;28056;51.112;0.984;2023-04-26T06:18:58;100994.68;;;9.46;46.70
42411;BME280;28056;51.112;0.984;2023-04-26T06:21:25;100995.59;;;9.58;46.49
42411;BME280;28056;51.112;0.984;2023-04-26T06:23:52;100998.00;;;9.32;45.96
42411;BME280;28056;51.112;0.984;2023-04-26T06:26:19;101002.27;;;9.39;46.46
42411;BME280;28056;51.112;0.984;2023-04-26T06:28:46;101002.27;;;9.05;44.93
42411;BME280;28056;51.112;0.984;2023-04-26T06:31:13;101008.28;;;8.77;46.22
42411;BME280;28056;51.112;0.984;2023-04-26T06:33:41;101009.03;;;9.40;45.93
42411;BME280;28056;51.112;0.984;2023-04-26T06:36:10;101009.56;;;9.81;45.85
42411;BME280;28056;51.112;0.984;2023-04-26T06:38:38;101009.15;;;9.66;45.57
42411;BME280;28056;51.112;0.984;2023-04-26T06:41:05;101005.78;;;9.48;45.90
42411;BME280;28056;51.112;0.984;2023-04-26T06:43:32;101005.33;;;9.69;46.44
42411;BME280;28056;51.112;0.984;2023-04-26T06:45:59;101009.82;;;10.27;45.90
42411;BME280;28056;51.112;0.984;2023-04-26T06:48:26;101010.86;;;9.95;45.18
42411;BME280;28056;51.112;0.984;2023-04-26T06:50:53;101011.12;;;9.72;45.47
42411;BME280;28056;51.112;0.984;2023-04-26T06:53:20;101013.85;;;8.76;45.54
42411;BME280;28056;51.112;0.984;2023-04-26T06:55:48;101014.89;;;9.29;45.54
42411;BME280;28056;51.112;0.984;2023-04-26T06:58:15;101017.11;;;8.77;45.64
42411;BME280;28056;51.112;0.984;2023-04-26T07:00:42;101023.38;;;8.35;46.10
42411;BME280;28056;51.112;0.984;2023-04-26T07:03:09;101026.30;;;8.43;46.03
42411;BME280;28056;51.112;0.984;2023-04-26T07:05:37;101022.55;;;8.65;45.84
42411;BME280;28056;51.112;0.984;2023-04-26T07:08:05;101016.51;;;7.99;45.23
42411;BME280;28056;51.112;0.984;2023-04-26T07:10:32;101014.84;;;8.51;45.56
42411;BME280;28056;51.112;0.984;2023-04-26T07:12:59;101009.09;;;7.84;45.71
42411;BME280;28056;51.112;0.984;2023-04-26T07:15:28;101007.53;;;8.16;44.69
42411;BME280;28056;51.112;0.984;2023-04-26T07:17:55;101005.23;;;8.13;44.64
42411;BME280;28056;51.112;0.984;2023-04-26T07:20:22;100997.52;;;8.85;44.92
42411;BME280;28056;51.112;0.984;2023-04-26T07:22:50;100997.45;;;8.94;45.21
42411;BME280;28056;51.112;0.984;2023-04-26T07:25:17;100989.25;;;9.50;43.50
42411;BME280;28056;51.112;0.984;2023-04-26T07:27:44;100991.84;;;7.53;44.34
42411;BME280;28056;51.112;0.984;2023-04-26T07:30:12;100990.00;;;7.74;44.67
42411;BME280;28056;51.112;0.984;2023-04-26T07:32:39;100983.64;;;8.66;43.86
42411;BME280;28056;51.112;0.984;2023-04-26T07:35:08;100984.07;;;7.77;44.45
42411;BME280;28056;51.112;0.984;2023-04-26T07:37:36;100980.24;;;7.66;44.51
42411;BME280;28056;51.112;0.984;2023-04-26T07:40:04;100974.78;;;7.99;43.11
42411;BME280;28056;51.112;0.984;2023-04-26T07:42:32;100970.88;;;8.12;43.63
42411;BME280;28056;51.112;0.984;2023-04-26T07:45:00;100966.67;;;7.26;44.22
42411;BME280;28056;51.112;0.984;2023-04-26T07:47:28;100966.20;;;7.85;43.35
42411;BME280;28056;51.112;0.984;2023-04-26T07:49:56;100970.67;;;7.96;44.29
42411;BME280;28056;51.112;0.984;2023-04-26T07:52:24;100968.14;;;8.52;44.56
42411;BME280;28056;51.112;0.984;2023-04-26T07:54:50;100968.52;;;8.83;43.15
42411;BME280;28056;51.112;0.984;2023-04-26T07:57:18;100976.33;;;7.81;41.26
42411;BME280;28056;51.112;0.984;2023-04-26T07:59:45;100978.99;;;7.92;43.21
42411;BME280;28056;51.112;0.984;2023-04-26T08:02:13;100976.71;;;8.90;41.44
42411;BME280;28056;51.112;0.984;2023-04-26T08:04:46;100980.86;;;8.65;42.02
42411;BME280;28056;51.112;0.984;2023-04-26T08:07:14;100978.71;;;9.06;41.50
42411;BME280;28056;51.112;0.984;2023-04-26T08:09:42;100983.97;;;8.17;41.84
42411;BME280;28056;51.112;0.984;2023-04-26T08:12:10;100979.29;;;8.56;41.79
42411;BME280;28056;51.112;0.984;2023-04-26T08:14:38;100980.10;;;8.73;41.23
42411;BME280;28056;51.112;0.984;2023-04-26T08:17:06;100981.07;;;8.35;40.43
42411;BME280;28056;51.112;0.984;2023-04-26T08:19:33;100987.41;;;8.23;41.43
42411;BME280;28056;51.112;0.984;2023-04-26T08:22:01;100991.47;;;8.56;40.21
42411;BME280;28056;51.112;0.984;2023-04-26T08:24:29;100992.96;;;9.12;40.16
42411;BME280;28056;51.112;0.984;2023-04-26T08:26:56;100995.74;;;9.00;40.21
42411;BME280;28056;51.112;0.984;2023-04-26T08:29:25;101004.64;;;9.55;40.97
42411;BME280;28056;51.112;0.984;2023-04-26T08:31:53;100997.84;;;9.49;41.29
42411;BME280;28056;51.112;0.984;2023-04-26T08:34:20;100994.15;;;8.90;38.68
42411;BME280;28056;51.112;0.984;2023-04-26T08:36:48;100988.98;;;8.45;38.43
42411;BME280;28056;51.112;0.984;2023-04-26T08:39:16;100991.87;;;7.83;40.24
42411;BME280;28056;51.112;0.984;2023-04-26T08:41:44;100994.28;;;8.23;40.29
42411;BME280;28056;51.112;0.984;2023-04-26T08:44:15;100996.88;;;7.70;40.92
42411;BME280;28056;51.112;0.984;2023-04-26T08:46:49;100992.81;;;8.30;40.03
42411;BME280;28056;51.112;0.984;2023-04-26T08:49:29;100994.32;;;8.43;39.71
42411;BME280;28056;51.112;0.984;2023-04-26T08:51:58;100984.91;;;9.46;38.42
42411;BME280;28056;51.112;0.984;2023-04-26T08:54:26;100989.44;;;8.91;41.26
42411;BME280;28056;51.112;0.984;2023-04-26T08:56:54;100983.80;;;8.95;38.24
42411;BME280;28056;51.112;0.984;2023-04-26T08:59:24;100982.75;;;9.01;39.09
42411;BME280;28056;51.112;0.984;2023-04-26T09:01:52;100982.15;;;8.90;39.38
42411;BME280;28056;51.112;0.984;2023-04-26T09:04:20;100980.01;;;9.75;37.47
42411;BME280;28056;51.112;0.984;2023-04-26T09:06:49;100981.02;;;9.89;38.16
42411;BME280;28056;51.112;0.984;2023-04-26T09:09:20;100984.32;;;9.90;37.20
42411;BME280;28056;51.112;0.984;2023-04-26T09:11:57;100991.46;;;9.67;35.27
42411;BME280;28056;51.112;0.984;2023-04-26T09:14:26;100991.54;;;8.77;36.92
42411;BME280;28056;51.112;0.984;2023-04-26T09:16:54;100991.94;;;8.95;37.71
42411;BME280;28056;51.112;0.984;2023-04-26T09:19:34;100989.70;;;9.84;37.65
42411;BME280;28056;51.112;0.984;2023-04-26T09:22:02;100998.96;;;8.45;38.70
42411;BME280;28056;51.112;0.984;2023-04-26T09:24:51;100997.93;;;9.59;38.77
42411;BME280;28056;51.112;0.984;2023-04-26T09:27:19;100996.63;;;10.13;37.34
42411;BME280;28056;51.112;0.984;2023-04-26T09:30:06;100990.27;;;9.11;38.43
42411;BME280;28056;51.112;0.984;2023-04-26T09:32:52;100991.08;;;9.25;36.92
42411;BME280;28056;51.112;0.984;2023-04-26T09:35:24;100994.96;;;9.54;35.83
42411;BME280;28056;51.112;0.984;2023-04-26T09:37:53;101000.00;;;9.20;37.01
42411;BME280;28056;51.112;0.984;2023-04-26T09:40:21;101000.37;;;8.90;37.00
42411;BME280;28056;51.112;0.984;2023-04-26T09:42:57;101000.20;;;9.31;37.26
42411;BME280;28056;51.112;0.984;2023-04-26T09:45:24;100993.43;;;8.91;36.79
42411;BME280;28056;51.112;0.984;2023-04-26T09:47:52;101001.23;;;8.25;36.77
42411;BME280;28056;51.112;0.984;2023-04-26T09:50:28;100998.78;;;8.20;39.10
42411;BME280;28056;51.112;0.984;2023-04-26T09:52:56;100991.76;;;8.08;38.31
42411;BME280;28056;51.112;0.984;2023-04-26T09:55:28;100992.63;;;7.87;39.18
42411;BME280;28056;51.112;0.984;2023-04-26T09:57:56;100987.32;;;8.17;38.32
42411;BME280;28056;51.112;0.984;2023-04-26T10:00:24;100993.35;;;8.42;38.68
42411;BME280;28056;51.112;0.984;2023-04-26T10:02:52;100988.85;;;8.54;40.21
42411;BME280;28056;51.112;0.984;2023-04-26T10:05:21;100990.56;;;8.33;38.37
42411;BME280;28056;51.112;0.984;2023-04-26T10:07:48;100991.67;;;8.21;39.75
42411;BME280;28056;51.112;0.984;2023-04-26T10:10:17;100982.42;;;8.53;40.08
42411;BME280;28056;51.112;0.984;2023-04-26T10:12:45;100979.48;;;10.22;40.73
42411;BME280;28056;51.112;0.984;2023-04-26T10:15:14;100982.87;;;10.07;38.99
42411;BME280;28056;51.112;0.984;2023-04-26T10:17:41;100983.35;;;10.04;38.83
42411;BME280;28056;51.112;0.984;2023-04-26T10:20:11;100984.36;;;9.93;36.69
42411;BME280;28056;51.112;0.984;2023-04-26T10:22:44;100987.99;;;10.03;37.42
42411;BME280;28056;51.112;0.984;2023-04-26T10:25:12;100988.86;;;8.73;38.24
42411;BME280;28056;51.112;0.984;2023-04-26T10:27:49;100988.58;;;10.31;38.81
42411;BME280;28056;51.112;0.984;2023-04-26T10:30:19;100985.07;;;9.32;37.88
42411;BME280;28056;51.112;0.984;2023-04-26T10:33:11;100989.80;;;10.18;38.74
42411;BME280;28056;51.112;0.984;2023-04-26T10:35:59;100987.94;;;9.93;36.09
42411;BME280;28056;51.112;0.984;2023-04-26T10:38:27;100980.18;;;9.83;37.09
42411;BME280;28056;51.112;0.984;2023-04-26T10:40:55;100977.79;;;9.83;38.70
42411;BME280;28056;51.112;0.984;2023-04-26T10:43:53;100981.04;;;10.63;38.64
42411;BME280;28056;51.112;0.984;2023-04-26T10:46:37;100974.60;;;10.30;37.71
42411;BME280;28056;51.112;0.984;2023-04-26T10:49:13;100967.44;;;11.29;37.96
42411;BME280;28056;51.112;0.984;2023-04-26T10:52:07;100960.73;;;11.10;36.86
42411;BME280;28056;51.112;0.984;2023-04-26T10:54:52;100960.38;;;11.37;34.74
42411;BME280;28056;51.112;0.984;2023-04-26T10:57:21;100962.10;;;12.00;34.26
42411;BME280;28056;51.112;0.984;2023-04-26T11:00:18;100957.05;;;11.54;32.96
42411;BME280;28056;51.112;0.984;2023-04-26T11:03:22;100958.32;;;11.66;36.79
42411;BME280;28056;51.112;0.984;2023-04-26T11:05:53;100956.11;;;10.21;35.21
42411;BME280;28056;51.112;0.984;2023-04-26T11:08:24;100957.21;;;11.13;36.09
42411;BME280;28056;51.112;0.984;2023-04-26T11:11:04;100959.18;;;11.67;36.67
42411;BME280;28056;51.112;0.984;2023-04-26T11:13:32;100954.88;;;11.51;35.67
42411;BME280;28056;51.112;0.984;2023-04-26T11:16:01;100953.65;;;11.29;34.54
42411;BME280;28056;51.112;0.984;2023-04-26T11:18:29;100950.04;;;12.34;34.31
42411;BME280;28056;51.112;0.984;2023-04-26T11:20:58;100942.65;;;10.79;34.94
42411;BME280;28056;51.112;0.984;2023-04-26T11:23:27;100940.97;;;11.04;35.76
42411;BME280;28056;51.112;0.984;2023-04-26T11:25:57;100940.72;;;11.41;35.94
42411;BME280;28056;51.112;0.984;2023-04-26T11:28:24;100942.03;;;12.14;35.86
42411;BME280;28056;51.112;0.984;2023-04-26T11:30:52;100942.86;;;12.99;37.29
42411;BME280;28056;51.112;0.984;2023-04-26T11:33:21;100935.79;;;11.50;33.83
42411;BME280;28056;51.112;0.984;2023-04-26T11:35:49;100939.19;;;12.13;33.26
42411;BME280;28056;51.112;0.984;2023-04-26T11:38:17;100944.19;;;12.49;34.28
42411;BME280;28056;51.112;0.984;2023-04-26T11:40:52;100943.95;;;11.39;34.22
42411;BME280;28056;51.112;0.984;2023-04-26T11:43:20;100945.85;;;12.20;35.81
42411;BME280;28056;51.112;0.984;2023-04-26T11:45:47;100945.64;;;12.06;34.34
42411;BME280;28056;51.112;0.984;2023-04-26T11:48:15;100948.71;;;11.95;34.40
42411;BME280;28056;51.112;0.984;2023-04-26T11:50:42;100945.70;;;13.20;33.96
42411;BME280;28056;51.112;0.984;2023-04-26T11:53:10;100949.74;;;12.69;35.02
42411;BME280;28056;51.112;0.984;2023-04-26T11:55:38;100946.92;;;13.88;33.01
42411;BME280;28056;51.112;0.984;2023-04-26T11:58:11;100945.20;;;13.58;30.77
42411;BME280;28056;51.112;0.984;2023-04-26T12:00:59;100944.74;;;12.90;33.83
42411;BME280;28056;51.112;0.984;2023-04-26T12:03:30;100943.24;;;14.24;32.27
42411;BME280;28056;51.112;0.984;2023-04-26T12:05:58;100942.06;;;13.12;34.27
42411;BME280;28056;51.112;0.984;2023-04-26T12:08:26;100940.94;;;12.04;34.09
42411;BME280;28056;51.112;0.984;2023-04-26T12:10:53;100938.14;;;13.71;36.23
42411;BME280;28056;51.112;0.984;2023-04-26T12:13:21;100941.69;;;13.23;31.54
42411;BME280;28056;51.112;0.984;2023-04-26T12:15:48;100939.46;;;12.58;31.12
42411;BME280;28056;51.112;0.984;2023-04-26T12:18:15;100945.70;;;12.35;32.48
42411;BME280;28056;51.112;0.984;2023-04-26T12:20:43;100946.16;;;12.80;33.94
42411;BME280;28056;51.112;0.984;2023-04-26T12:23:13;100949.70;;;13.03;33.17
42411;BME280;28056;51.112;0.984;2023-04-26T12:25:51;100952.35;;;11.99;33.95
42411;BME280;28056;51.112;0.984;2023-04-26T12:28:19;100950.54;;;13.11;29.49
42411;BME280;28056;51.112;0.984;2023-04-26T12:30:49;100950.97;;;12.55;32.81
42411;BME280;28056;51.112;0.984;2023-04-26T12:33:16;100951.29;;;12.15;32.76
42411;BME280;28056;51.112;0.984;2023-04-26T12:35:44;100946.13;;;12.85;32.52
42411;BME280;28056;51.112;0.984;2023-04-26T12:38:13;100946.49;;;13.44;32.53
42411;BME280;28056;51.112;0.984;2023-04-26T12:40:41;100945.35;;;13.66;32.14
42411;BME280;28056;51.112;0.984;2023-04-26T12:43:09;100946.86;;;12.78;32.49
42411;BME280;28056;51.112;0.984;2023-04-26T12:45:36;100946.85;;;13.38;32.49
42411;BME280;28056;51.112;0.984;2023-04-26T12:48:04;100944.58;;;13.74;31.88
42411;BME280;28056;51.112;0.984;2023-04-26T12:50:32;100943.52;;;13.92;32.97
42411;BME280;28056;51.112;0.984;2023-04-26T12:52:59;100947.76;;;13.84;33.70
42411;BME280;28056;51.112;0.984;2023-04-26T12:55:27;100942.19;;;13.71;31.88
42411;BME280;28056;51.112;0.984;2023-04-26T12:57:55;100944.30;;;13.25;31.50
42411;BME280;28056;51.112;0.984;2023-04-26T13:00:22;100938.04;;;14.75;28.02
42411;BME280;28056;51.112;0.984;2023-04-26T13:02:50;100932.24;;;15.83;29.75
42411;BME280;28056;51.112;0.984;2023-04-26T13:05:18;100935.41;;;16.55;30.57
42411;BME280;28056;51.112;0.984;2023-04-26T13:07:45;100927.24;;;15.78;31.47
42411;BME280;28056;51.112;0.984;2023-04-26T13:10:13;100927.93;;;15.85;29.93